N572EX KCDW-KIAD
Flight info
| Callsign | N572EX |
|---|---|
| Flight time | N/A |
| Altitude | 1500 |
| Route | VFR |
| Aircraft | C208/L-G/S |
Departure
| Time | 2026-05-08 20:31 |
|---|---|
| Airport | Essex County Airport (KCDW) |
Arrival
| Time | N/A |
|---|---|
| Airport | Washington Dulles International Airport (KIAD) |
| Time | Latitude | Longitude | Altitude | Speed | Heading |
|---|---|---|---|---|---|
| 2026-05-08 20:04 | 40.87674 | -74.27759 | 180 ft | 0 kts | 133° |
| 2026-05-08 20:23 | 40.87674 | -74.27730 | 180 ft | 8 kts | 52° |
| 2026-05-08 20:24 | 40.87724 | -74.27697 | 180 ft | 0 kts | 353° |
| 2026-05-08 20:24 | 40.87739 | -74.27696 | 180 ft | 4 kts | 19° |
| 2026-05-08 20:24 | 40.87757 | -74.27626 | 180 ft | 14 kts | 86° |
| 2026-05-08 20:24 | 40.87771 | -74.27474 | 180 ft | 15 kts | 84° |
| 2026-05-08 20:25 | 40.87777 | -74.27392 | 180 ft | 4 kts | 72° |
| 2026-05-08 20:25 | 40.87778 | -74.27384 | 180 ft | 0 kts | 73° |
| 2026-05-08 20:25 | 40.87779 | -74.27384 | 180 ft | 1 kts | 73° |
| 2026-05-08 20:25 | 40.87802 | -74.27356 | 180 ft | 2 kts | 349° |
| 2026-05-08 20:28 | 40.87803 | -74.27357 | 179 ft | 2 kts | 349° |
| 2026-05-08 20:29 | 40.87830 | -74.27400 | 179 ft | 11 kts | 269° |
| 2026-05-08 20:29 | 40.87815 | -74.27549 | 178 ft | 22 kts | 260° |
| 2026-05-08 20:29 | 40.87811 | -74.27585 | 178 ft | 0 kts | 257° |
| 2026-05-08 20:30 | 40.87809 | -74.27603 | 178 ft | 12 kts | 266° |
| 2026-05-08 20:30 | 40.87771 | -74.28011 | 196 ft | 74 kts | 267° |
| 2026-05-08 20:30 | 40.87684 | -74.28798 | 410 ft | 97 kts | 265° |
| 2026-05-08 20:30 | 40.87872 | -74.29650 | 689 ft | 104 kts | 310° |
| 2026-05-08 20:31 | 40.88629 | -74.29907 | 895 ft | 125 kts | 356° |
| 2026-05-08 20:31 | 40.89536 | -74.29657 | 1070 ft | 137 kts | 2° |
| 2026-05-08 20:31 | 40.90187 | -74.29523 | 1023 ft | 143 kts | 357° |
| 2026-05-08 20:31 | 40.91492 | -74.29238 | 1097 ft | 141 kts | 8° |
| 2026-05-08 20:32 | 40.92337 | -74.28613 | 1059 ft | 139 kts | 33° |
| 2026-05-08 20:32 | 40.92991 | -74.27681 | 1043 ft | 136 kts | 48° |
| 2026-05-08 20:32 | 40.93542 | -74.26673 | 1083 ft | 136 kts | 49° |
| 2026-05-08 20:32 | 40.94067 | -74.25627 | 1061 ft | 138 kts | 52° |
| 2026-05-08 20:33 | 40.94487 | -74.24516 | 1157 ft | 133 kts | 54° |
| 2026-05-08 20:33 | 40.94917 | -74.23400 | 1164 ft | 138 kts | 59° |
| 2026-05-08 20:33 | 40.95181 | -74.22622 | 1156 ft | 141 kts | 60° |
| 2026-05-08 20:33 | 40.95730 | -74.21042 | 1182 ft | 147 kts | 59° |
| 2026-05-08 20:34 | 40.95994 | -74.20199 | 1138 ft | 149 kts | 61° |
| 2026-05-08 20:34 | 40.96521 | -74.19066 | 1135 ft | 142 kts | 53° |
| 2026-05-08 20:34 | 40.97661 | -74.16915 | 1159 ft | 145 kts | 46° |
| 2026-05-08 20:35 | 40.98204 | -74.15778 | 1168 ft | 148 kts | 52° |
| 2026-05-08 20:35 | 40.98759 | -74.14620 | 1146 ft | 148 kts | 51° |
| 2026-05-08 20:35 | 40.99310 | -74.13496 | 1148 ft | 141 kts | 50° |
| 2026-05-08 20:35 | 40.99817 | -74.12392 | 1151 ft | 140 kts | 54° |
| 2026-05-08 20:36 | 41.00312 | -74.11319 | 1126 ft | 134 kts | 52° |
| 2026-05-08 20:36 | 41.00811 | -74.10296 | 1145 ft | 132 kts | 52° |
| 2026-05-08 20:36 | 41.01296 | -74.09258 | 1168 ft | 134 kts | 50° |
| 2026-05-08 20:36 | 41.01778 | -74.08184 | 1170 ft | 136 kts | 56° |
| 2026-05-08 20:37 | 41.02200 | -74.07113 | 1312 ft | 129 kts | 57° |
| 2026-05-08 20:37 | 41.02630 | -74.06064 | 1327 ft | 133 kts | 54° |
| 2026-05-08 20:37 | 41.03073 | -74.04953 | 1302 ft | 137 kts | 53° |
| 2026-05-08 20:37 | 41.03535 | -74.03831 | 1287 ft | 136 kts | 55° |
| 2026-05-08 20:38 | 41.03920 | -74.02711 | 1423 ft | 132 kts | 62° |
| 2026-05-08 20:38 | 41.04275 | -74.01546 | 1333 ft | 139 kts | 62° |
| 2026-05-08 20:38 | 41.04665 | -74.00374 | 1257 ft | 141 kts | 59° |
| 2026-05-08 20:38 | 41.05021 | -73.99160 | 1180 ft | 142 kts | 67° |
| 2026-05-08 20:39 | 41.05341 | -73.97913 | 1101 ft | 144 kts | 67° |
| 2026-05-08 20:39 | 41.05598 | -73.96663 | 1099 ft | 140 kts | 70° |
| 2026-05-08 20:39 | 41.05826 | -73.95436 | 1133 ft | 134 kts | 73° |
| 2026-05-08 20:39 | 41.05997 | -73.94231 | 1160 ft | 132 kts | 71° |
| 2026-05-08 20:40 | 41.06290 | -73.93111 | 1270 ft | 128 kts | 59° |
| 2026-05-08 20:40 | 41.06632 | -73.92003 | 1339 ft | 131 kts | 66° |
| 2026-05-08 20:40 | 41.06656 | -73.90762 | 1217 ft | 148 kts | 112° |
| 2026-05-08 20:40 | 41.05909 | -73.89896 | 1139 ft | 145 kts | 168° |
| 2026-05-08 20:41 | 41.04950 | -73.89810 | 1180 ft | 135 kts | 184° |
| 2026-05-08 20:41 | 41.04028 | -73.89704 | 1228 ft | 133 kts | 182° |
| 2026-05-08 20:41 | 41.03118 | -73.89579 | 1267 ft | 131 kts | 181° |
| 2026-05-08 20:41 | 41.02711 | -73.89502 | 1301 ft | 130 kts | 180° |
| 2026-05-08 20:42 | 41.01948 | -73.89366 | 1339 ft | 130 kts | 185° |
| 2026-05-08 20:42 | 41.01019 | -73.89268 | 1252 ft | 137 kts | 186° |
| 2026-05-08 20:43 | 41.00075 | -73.89328 | 1235 ft | 134 kts | 193° |
| 2026-05-08 20:43 | 40.99126 | -73.89460 | 1142 ft | 141 kts | 196° |
| 2026-05-08 20:43 | 40.98144 | -73.89599 | 1085 ft | 140 kts | 195° |
| 2026-05-08 20:43 | 40.97198 | -73.89837 | 1050 ft | 137 kts | 201° |
| 2026-05-08 20:44 | 40.96301 | -73.90188 | 1059 ft | 134 kts | 204° |
| 2026-05-08 20:44 | 40.95421 | -73.90572 | 1073 ft | 133 kts | 208° |
| 2026-05-08 20:44 | 40.94553 | -73.91004 | 1048 ft | 133 kts | 206° |
| 2026-05-08 20:44 | 40.93691 | -73.91416 | 1045 ft | 132 kts | 207° |
| 2026-05-08 20:45 | 40.92817 | -73.91771 | 1088 ft | 132 kts | 206° |
| 2026-05-08 20:45 | 40.91926 | -73.92095 | 1077 ft | 134 kts | 205° |
| 2026-05-08 20:45 | 40.90998 | -73.92363 | 1074 ft | 138 kts | 201° |
| 2026-05-08 20:45 | 40.90076 | -73.92632 | 1121 ft | 133 kts | 205° |
| 2026-05-08 20:46 | 40.89205 | -73.92984 | 1145 ft | 131 kts | 205° |
| 2026-05-08 20:46 | 40.88286 | -73.93326 | 1044 ft | 139 kts | 204° |
| 2026-05-08 20:46 | 40.87361 | -73.93665 | 1034 ft | 136 kts | 200° |
| 2026-05-08 20:46 | 40.86566 | -73.94176 | 1089 ft | 125 kts | 218° |
| 2026-05-08 20:47 | 40.85775 | -73.94701 | 1064 ft | 129 kts | 213° |
| 2026-05-08 20:47 | 40.84950 | -73.95165 | 1077 ft | 127 kts | 210° |
| 2026-05-08 20:47 | 40.84109 | -73.95583 | 1047 ft | 133 kts | 206° |
| 2026-05-08 20:47 | 40.83200 | -73.95902 | 1002 ft | 133 kts | 205° |
| 2026-05-08 20:48 | 40.82409 | -73.96372 | 1032 ft | 116 kts | 212° |
| 2026-05-08 20:48 | 40.81754 | -73.96829 | 943 ft | 97 kts | 225° |
| 2026-05-08 20:48 | 40.81259 | -73.97356 | 845 ft | 86 kts | 228° |
| 2026-05-08 20:48 | 40.80852 | -73.97694 | 867 ft | 62 kts | 220° |
| 2026-05-08 20:49 | 40.80686 | -73.97784 | 841 ft | 54 kts | 223° |
| 2026-05-08 20:49 | 40.80436 | -73.97935 | 775 ft | 52 kts | 215° |
| 2026-05-08 20:49 | 40.80027 | -73.98092 | 762 ft | 72 kts | 204° |
| 2026-05-08 20:49 | 40.79532 | -73.98259 | 810 ft | 71 kts | 206° |
| 2026-05-08 20:50 | 40.79039 | -73.98507 | 794 ft | 76 kts | 221° |
| 2026-05-08 20:50 | 40.78619 | -73.98914 | 816 ft | 74 kts | 226° |
| 2026-05-08 20:50 | 40.78148 | -73.99421 | 774 ft | 97 kts | 227° |
| 2026-05-08 20:50 | 40.77614 | -74.00085 | 988 ft | 113 kts | 231° |
| 2026-05-08 20:51 | 40.76945 | -74.00755 | 1027 ft | 128 kts | 211° |
| 2026-05-08 20:51 | 40.76179 | -74.01147 | 941 ft | 111 kts | 208° |
| 2026-05-08 20:51 | 40.75496 | -74.01552 | 928 ft | 108 kts | 209° |
| 2026-05-08 20:51 | 40.74741 | -74.01811 | 924 ft | 118 kts | 197° |
| 2026-05-08 20:52 | 40.73879 | -74.01877 | 842 ft | 127 kts | 192° |
| 2026-05-08 20:52 | 40.73058 | -74.02054 | 967 ft | 114 kts | 198° |
| 2026-05-08 20:52 | 40.72294 | -74.02273 | 1045 ft | 111 kts | 204° |
| 2026-05-08 20:52 | 40.71519 | -74.02487 | 1052 ft | 116 kts | 201° |
| 2026-05-08 20:53 | 40.70737 | -74.02730 | 1038 ft | 114 kts | 206° |
| 2026-05-08 20:53 | 40.70008 | -74.03036 | 901 ft | 110 kts | 206° |
| 2026-05-08 20:53 | 40.69299 | -74.03420 | 751 ft | 108 kts | 216° |
| 2026-05-08 20:53 | 40.68741 | -74.03969 | 637 ft | 94 kts | 246° |
| 2026-05-08 20:54 | 40.68732 | -74.04776 | 526 ft | 89 kts | 294° |
| 2026-05-08 20:54 | 40.69229 | -74.04787 | 755 ft | 99 kts | 38° |
| 2026-05-08 20:54 | 40.69373 | -74.03767 | 756 ft | 131 kts | 114° |
| 2026-05-08 20:54 | 40.68683 | -74.03282 | 786 ft | 114 kts | 201° |
| 2026-05-08 20:55 | 40.67938 | -74.03644 | 857 ft | 112 kts | 213° |
| 2026-05-08 20:55 | 40.67229 | -74.04024 | 971 ft | 108 kts | 214° |
| 2026-05-08 20:55 | 40.66607 | -74.04524 | 1031 ft | 109 kts | 220° |
| 2026-05-08 20:55 | 40.65929 | -74.05065 | 1000 ft | 117 kts | 214° |
| 2026-05-08 20:56 | 40.65123 | -74.05354 | 1029 ft | 122 kts | 194° |
| 2026-05-08 20:56 | 40.64274 | -74.05323 | 1094 ft | 126 kts | 181° |
| 2026-05-08 20:56 | 40.63398 | -74.05121 | 1169 ft | 128 kts | 175° |
| 2026-05-08 20:56 | 40.62409 | -74.04873 | 1245 ft | 126 kts | 175° |
| 2026-05-08 20:57 | 40.61545 | -74.04706 | 1280 ft | 126 kts | 181° |
| 2026-05-08 20:57 | 40.60676 | -74.04526 | 1367 ft | 127 kts | 181° |
| 2026-05-08 20:57 | 40.59804 | -74.04322 | 1406 ft | 127 kts | 180° |
| 2026-05-08 20:57 | 40.58928 | -74.04194 | 1423 ft | 127 kts | 183° |
| 2026-05-08 20:58 | 40.58042 | -74.04075 | 1452 ft | 129 kts | 184° |
| 2026-05-08 20:58 | 40.57134 | -74.03937 | 1465 ft | 133 kts | 184° |
| 2026-05-08 20:58 | 40.56217 | -74.03887 | 1453 ft | 131 kts | 190° |
| 2026-05-08 20:58 | 40.55316 | -74.03932 | 1452 ft | 128 kts | 194° |
| 2026-05-08 20:59 | 40.54427 | -74.04038 | 1449 ft | 129 kts | 197° |
| 2026-05-08 20:59 | 40.53535 | -74.04165 | 1446 ft | 129 kts | 197° |
| 2026-05-08 20:59 | 40.52662 | -74.04369 | 1447 ft | 125 kts | 202° |
| 2026-05-08 20:59 | 40.52112 | -74.04581 | 1447 ft | 124 kts | 204° |
| 2026-05-08 21:00 | 40.51047 | -74.05125 | 1442 ft | 122 kts | 214° |
| 2026-05-08 21:00 | 40.50552 | -74.05478 | 1450 ft | 125 kts | 217° |
| 2026-05-08 21:00 | 40.49766 | -74.06130 | 1458 ft | 140 kts | 225° |
| 2026-05-08 21:00 | 40.49069 | -74.07077 | 1455 ft | 148 kts | 234° |
| 2026-05-08 21:01 | 40.48433 | -74.08155 | 1456 ft | 150 kts | 238° |
| 2026-05-08 21:01 | 40.47841 | -74.09280 | 1454 ft | 150 kts | 239° |
| 2026-05-08 21:01 | 40.47258 | -74.10428 | 1438 ft | 152 kts | 240° |
| 2026-05-08 21:01 | 40.46678 | -74.11566 | 1559 ft | 148 kts | 240° |
| 2026-05-08 21:02 | 40.46142 | -74.12702 | 1685 ft | 145 kts | 243° |
| 2026-05-08 21:02 | 40.45651 | -74.13845 | 1812 ft | 143 kts | 244° |
| 2026-05-08 21:02 | 40.45163 | -74.14983 | 1926 ft | 143 kts | 244° |
| 2026-05-08 21:02 | 40.44670 | -74.16107 | 2058 ft | 143 kts | 241° |
| 2026-05-08 21:03 | 40.43808 | -74.16758 | 2242 ft | 153 kts | 190° |
| 2026-05-08 21:03 | 40.42843 | -74.16218 | 2609 ft | 158 kts | 139° |
| 2026-05-08 21:03 | 40.42439 | -74.14901 | 2992 ft | 158 kts | 93° |
| 2026-05-08 21:03 | 40.42455 | -74.13485 | 3369 ft | 153 kts | 85° |
| 2026-05-08 21:04 | 40.42572 | -74.12112 | 3743 ft | 150 kts | 81° |
| 2026-05-08 21:04 | 40.42721 | -74.10768 | 4136 ft | 148 kts | 80° |
| 2026-05-08 21:04 | 40.42865 | -74.09431 | 4529 ft | 148 kts | 87° |
| 2026-05-08 21:04 | 40.42495 | -74.08242 | 4916 ft | 141 kts | 144° |
| 2026-05-08 21:05 | 40.41652 | -74.07868 | 5288 ft | 122 kts | 199° |
| 2026-05-08 21:05 | 40.41066 | -74.08494 | 5684 ft | 108 kts | 243° |
| 2026-05-08 21:05 | 40.40684 | -74.09327 | 6081 ft | 107 kts | 247° |
| 2026-05-08 21:05 | 40.40663 | -74.10267 | 6470 ft | 107 kts | 285° |
| 2026-05-08 21:06 | 40.40608 | -74.11169 | 6847 ft | 107 kts | 240° |
| 2026-05-08 21:06 | 40.40129 | -74.11927 | 7226 ft | 108 kts | 239° |
| 2026-05-08 21:06 | 40.39654 | -74.12692 | 7592 ft | 110 kts | 239° |
| 2026-05-08 21:06 | 40.39146 | -74.13508 | 7794 ft | 122 kts | 239° |
| 2026-05-08 21:07 | 40.38579 | -74.14424 | 7877 ft | 135 kts | 238° |
| 2026-05-08 21:07 | 40.37963 | -74.15414 | 7916 ft | 144 kts | 238° |
| 2026-05-08 21:07 | 40.37317 | -74.16451 | 7942 ft | 150 kts | 238° |
| 2026-05-08 21:07 | 40.36649 | -74.17522 | 7948 ft | 154 kts | 237° |
| 2026-05-08 21:08 | 40.35971 | -74.18610 | 7952 ft | 158 kts | 237° |
| 2026-05-08 21:08 | 40.35260 | -74.19745 | 7951 ft | 159 kts | 237° |
| 2026-05-08 21:08 | 40.34559 | -74.20848 | 7948 ft | 160 kts | 235° |
| 2026-05-08 21:08 | 40.33748 | -74.21864 | 7949 ft | 161 kts | 231° |
| 2026-05-08 21:09 | 40.32942 | -74.22911 | 7954 ft | 161 kts | 233° |
| 2026-05-08 21:09 | 40.32209 | -74.23986 | 7954 ft | 160 kts | 236° |
| 2026-05-08 21:09 | 40.31486 | -74.25121 | 7955 ft | 160 kts | 238° |
| 2026-05-08 21:09 | 40.30855 | -74.26284 | 7958 ft | 158 kts | 243° |
| 2026-05-08 21:10 | 40.30285 | -74.27513 | 7958 ft | 158 kts | 245° |
| 2026-05-08 21:10 | 40.29744 | -74.28771 | 7957 ft | 159 kts | 245° |
| 2026-05-08 21:10 | 40.29197 | -74.30031 | 7956 ft | 159 kts | 245° |
| 2026-05-08 21:10 | 40.28631 | -74.31276 | 7955 ft | 159 kts | 244° |
| 2026-05-08 21:11 | 40.28050 | -74.32509 | 7957 ft | 159 kts | 244° |
| 2026-05-08 21:11 | 40.27472 | -74.33740 | 7940 ft | 158 kts | 244° |
| 2026-05-08 21:11 | 40.26905 | -74.34978 | 7948 ft | 159 kts | 244° |
| 2026-05-08 21:11 | 40.26340 | -74.36221 | 7950 ft | 159 kts | 244° |
| 2026-05-08 21:12 | 40.25770 | -74.37455 | 7947 ft | 158 kts | 244° |
| 2026-05-08 21:12 | 40.25209 | -74.38686 | 7947 ft | 157 kts | 244° |
| 2026-05-08 21:12 | 40.24648 | -74.39915 | 7950 ft | 157 kts | 244° |
| 2026-05-08 21:12 | 40.24084 | -74.41147 | 7948 ft | 158 kts | 244° |
| 2026-05-08 21:13 | 40.23509 | -74.42382 | 7957 ft | 159 kts | 244° |
| 2026-05-08 21:13 | 40.22935 | -74.43628 | 7951 ft | 160 kts | 244° |
| 2026-05-08 21:13 | 40.22365 | -74.44877 | 7948 ft | 160 kts | 244° |
| 2026-05-08 21:13 | 40.21798 | -74.46124 | 7946 ft | 160 kts | 244° |
| 2026-05-08 21:14 | 40.21223 | -74.47370 | 7933 ft | 160 kts | 244° |
| 2026-05-08 21:14 | 40.20642 | -74.48621 | 7939 ft | 161 kts | 244° |
| 2026-05-08 21:14 | 40.20071 | -74.49885 | 7938 ft | 161 kts | 245° |
| 2026-05-08 21:14 | 40.19469 | -74.51129 | 7937 ft | 162 kts | 242° |
| 2026-05-08 21:15 | 40.18887 | -74.52386 | 7935 ft | 162 kts | 244° |
| 2026-05-08 21:15 | 40.18309 | -74.53649 | 7935 ft | 162 kts | 243° |
| 2026-05-08 21:15 | 40.17817 | -74.54946 | 7933 ft | 157 kts | 262° |
| 2026-05-08 21:15 | 40.18131 | -74.56276 | 7948 ft | 163 kts | 306° |
| 2026-05-08 21:16 | 40.19131 | -74.57046 | 7978 ft | 167 kts | 322° |
| 2026-05-08 21:16 | 40.19782 | -74.58180 | 7991 ft | 156 kts | 286° |
| 2026-05-08 21:16 | 40.20087 | -74.59543 | 7995 ft | 156 kts | 281° |
| 2026-05-08 21:16 | 40.20314 | -74.60937 | 7995 ft | 157 kts | 279° |
| 2026-05-08 21:17 | 40.20525 | -74.62336 | 7994 ft | 157 kts | 279° |
| 2026-05-08 21:17 | 40.20732 | -74.63740 | 7992 ft | 157 kts | 279° |
| 2026-05-08 21:17 | 40.21011 | -74.65124 | 7990 ft | 158 kts | 284° |
| 2026-05-08 21:17 | 40.21341 | -74.66495 | 7992 ft | 158 kts | 285° |
| 2026-05-08 21:18 | 40.21686 | -74.67860 | 7992 ft | 158 kts | 285° |
| 2026-05-08 21:18 | 40.22039 | -74.69225 | 7993 ft | 158 kts | 286° |
| 2026-05-08 21:18 | 40.22394 | -74.70591 | 7993 ft | 158 kts | 286° |
| 2026-05-08 21:18 | 40.22722 | -74.71962 | 7993 ft | 157 kts | 278° |
| 2026-05-08 21:19 | 40.22715 | -74.73390 | 7993 ft | 157 kts | 268° |
| 2026-05-08 21:19 | 40.22665 | -74.74819 | 7994 ft | 158 kts | 268° |
| 2026-05-08 21:19 | 40.22604 | -74.76251 | 7993 ft | 158 kts | 267° |
| 2026-05-08 21:19 | 40.22534 | -74.77662 | 7993 ft | 157 kts | 267° |
| 2026-05-08 21:20 | 40.22462 | -74.79089 | 7993 ft | 157 kts | 267° |
| 2026-05-08 21:20 | 40.22390 | -74.80519 | 7991 ft | 157 kts | 267° |
| 2026-05-08 21:20 | 40.22319 | -74.81945 | 7993 ft | 157 kts | 267° |
| 2026-05-08 21:20 | 40.22247 | -74.83373 | 7995 ft | 158 kts | 267° |
| 2026-05-08 21:21 | 40.22172 | -74.84806 | 7995 ft | 158 kts | 267° |
| 2026-05-08 21:21 | 40.22096 | -74.86241 | 7993 ft | 158 kts | 267° |
| 2026-05-08 21:21 | 40.22019 | -74.87676 | 7992 ft | 158 kts | 267° |
| 2026-05-08 21:21 | 40.21943 | -74.89110 | 7992 ft | 158 kts | 267° |
| 2026-05-08 21:22 | 40.21868 | -74.90544 | 7995 ft | 158 kts | 267° |
| 2026-05-08 21:22 | 40.21796 | -74.91974 | 7994 ft | 158 kts | 267° |
| 2026-05-08 21:22 | 40.21725 | -74.93405 | 7995 ft | 158 kts | 267° |
| 2026-05-08 21:22 | 40.21653 | -74.94837 | 7994 ft | 158 kts | 267° |
| 2026-05-08 21:23 | 40.21580 | -74.96263 | 7993 ft | 157 kts | 267° |
| 2026-05-08 21:23 | 40.21506 | -74.97688 | 7991 ft | 157 kts | 267° |
| 2026-05-08 21:23 | 40.21430 | -74.99117 | 7992 ft | 158 kts | 267° |
| 2026-05-08 21:23 | 40.21354 | -75.00548 | 8010 ft | 158 kts | 267° |
| 2026-05-08 21:24 | 40.21281 | -75.01979 | 8008 ft | 158 kts | 267° |
| 2026-05-08 21:24 | 40.21207 | -75.03408 | 8008 ft | 158 kts | 267° |
| 2026-05-08 21:24 | 40.21133 | -75.04838 | 8011 ft | 158 kts | 267° |
| 2026-05-08 21:24 | 40.21059 | -75.06272 | 7999 ft | 158 kts | 267° |
| 2026-05-08 21:25 | 40.20983 | -75.07706 | 7997 ft | 158 kts | 267° |
| 2026-05-08 21:25 | 40.20906 | -75.09137 | 7994 ft | 157 kts | 267° |
| 2026-05-08 21:25 | 40.20833 | -75.10564 | 7992 ft | 157 kts | 267° |
| 2026-05-08 21:25 | 40.20759 | -75.11985 | 7993 ft | 157 kts | 267° |
| 2026-05-08 21:26 | 40.20685 | -75.13404 | 8003 ft | 156 kts | 267° |
| 2026-05-08 21:26 | 40.20617 | -75.14822 | 8002 ft | 156 kts | 267° |
| 2026-05-08 21:26 | 40.20550 | -75.16236 | 8005 ft | 156 kts | 267° |
| 2026-05-08 21:26 | 40.20480 | -75.17655 | 8006 ft | 156 kts | 267° |
| 2026-05-08 21:27 | 40.20411 | -75.19076 | 8000 ft | 156 kts | 267° |
| 2026-05-08 21:27 | 40.20343 | -75.20492 | 8001 ft | 156 kts | 267° |
| 2026-05-08 21:27 | 40.20269 | -75.21905 | 8004 ft | 156 kts | 267° |
| 2026-05-08 21:27 | 40.20197 | -75.23323 | 8003 ft | 157 kts | 267° |
| 2026-05-08 21:28 | 40.20125 | -75.24743 | 8000 ft | 156 kts | 267° |
| 2026-05-08 21:28 | 40.20053 | -75.26160 | 8002 ft | 156 kts | 267° |
| 2026-05-08 21:28 | 40.19986 | -75.27577 | 8006 ft | 156 kts | 267° |
| 2026-05-08 21:28 | 40.19918 | -75.28994 | 8007 ft | 156 kts | 267° |
| 2026-05-08 21:29 | 40.19849 | -75.30410 | 8005 ft | 156 kts | 267° |
| 2026-05-08 21:29 | 40.19780 | -75.31828 | 8006 ft | 156 kts | 267° |
| 2026-05-08 21:29 | 40.19714 | -75.33247 | 8002 ft | 156 kts | 267° |
| 2026-05-08 21:29 | 40.19652 | -75.34665 | 8000 ft | 156 kts | 267° |
| 2026-05-08 21:30 | 40.19589 | -75.36082 | 7995 ft | 157 kts | 267° |
| 2026-05-08 21:30 | 40.19521 | -75.37508 | 8002 ft | 158 kts | 267° |
| 2026-05-08 21:30 | 40.19452 | -75.38946 | 8010 ft | 159 kts | 267° |
| 2026-05-08 21:30 | 40.19383 | -75.40391 | 8008 ft | 160 kts | 267° |
| 2026-05-08 21:31 | 40.19314 | -75.41842 | 8013 ft | 160 kts | 267° |
| 2026-05-08 21:31 | 40.19247 | -75.43297 | 8012 ft | 161 kts | 267° |
| 2026-05-08 21:31 | 40.19184 | -75.44756 | 8010 ft | 161 kts | 267° |
| 2026-05-08 21:31 | 40.19122 | -75.46212 | 8011 ft | 160 kts | 267° |
| 2026-05-08 21:32 | 40.19080 | -75.47666 | 8008 ft | 160 kts | 270° |
| 2026-05-08 21:32 | 40.19022 | -75.49106 | 8009 ft | 159 kts | 259° |
| 2026-05-08 21:32 | 40.18754 | -75.50497 | 8015 ft | 161 kts | 257° |
| 2026-05-08 21:32 | 40.18478 | -75.51915 | 8013 ft | 161 kts | 257° |
| 2026-05-08 21:33 | 40.18208 | -75.53340 | 8009 ft | 161 kts | 258° |
| 2026-05-08 21:33 | 40.17964 | -75.54769 | 8007 ft | 161 kts | 261° |
| 2026-05-08 21:33 | 40.17815 | -75.56214 | 8009 ft | 160 kts | 264° |
| 2026-05-08 21:33 | 40.17716 | -75.57667 | 8013 ft | 160 kts | 265° |
| 2026-05-08 21:34 | 40.17631 | -75.59125 | 8015 ft | 161 kts | 266° |
| 2026-05-08 21:34 | 40.17533 | -75.60583 | 8014 ft | 161 kts | 265° |
| 2026-05-08 21:34 | 40.17410 | -75.62039 | 8009 ft | 161 kts | 264° |
| 2026-05-08 21:34 | 40.17279 | -75.63488 | 8006 ft | 161 kts | 264° |
| 2026-05-08 21:35 | 40.17154 | -75.64938 | 8010 ft | 160 kts | 264° |
| 2026-05-08 21:35 | 40.17038 | -75.66386 | 8014 ft | 160 kts | 265° |
| 2026-05-08 21:35 | 40.16926 | -75.67839 | 8016 ft | 161 kts | 265° |